createdAt,value
2022-08-18T00:01:09.186Z,836.75362
2022-08-18T00:06:11.169Z,863.40299
2022-08-18T00:11:13.137Z,836.75362
2022-08-18T00:16:14.904Z,811.60563
2022-08-18T00:21:17.289Z,799.55556
2022-08-18T00:26:19.145Z,787.83562
2022-08-18T00:31:20.894Z,799.55556
2022-08-18T00:36:22.892Z,849.88235
2022-08-18T00:41:24.786Z,877.33333
2022-08-18T00:46:26.523Z,849.88235
2022-08-18T00:51:28.731Z,849.88235
2022-08-18T00:56:30.533Z,891.69231
2022-08-18T01:01:32.298Z,836.75362
2022-08-18T01:06:34.197Z,811.60563
2022-08-18T01:11:35.971Z,799.55556
2022-08-18T01:16:37.737Z,824
2022-08-18T01:21:39.611Z,799.55556
2022-08-18T01:26:44.153Z,799.55556
2022-08-18T01:31:54.282Z,799.55556
2022-08-18T01:36:57.125Z,799.55556
2022-08-18T01:41:58.748Z,824
2022-08-18T01:47:00.424Z,824
2022-08-18T01:52:02.384Z,824
2022-08-18T01:57:03.867Z,799.55556
2022-08-18T02:02:05.564Z,787.83562
2022-08-18T02:07:07.501Z,787.83562
2022-08-18T02:12:09.395Z,776.43243
2022-08-18T02:17:11.098Z,754.52632
2022-08-18T02:22:13.123Z,765.33333
2022-08-18T02:27:14.548Z,776.43243
2022-08-18T02:32:16.108Z,799.55556
2022-08-18T02:37:17.565Z,776.43243
2022-08-18T02:42:19.107Z,765.33333
2022-08-18T02:47:20.547Z,723.74684
2022-08-18T02:52:22.417Z,599.31915
2022-08-18T02:57:23.822Z,547.92157
2022-08-18T03:02:25.359Z,553.90099
2022-08-18T03:07:26.851Z,592.42105
2022-08-18T03:12:28.378Z,585.66667
2022-08-18T03:17:29.806Z,620.92308
2022-08-18T03:22:31.502Z,620.92308
2022-08-18T03:27:33.875Z,613.56522
2022-08-18T03:32:35.502Z,644
2022-08-18T03:37:37.505Z,628.44444
2022-08-18T03:42:38.943Z,620.92308
2022-08-18T03:47:40.414Z,620.92308
2022-08-18T03:52:42.359Z,613.56522
2022-08-18T03:57:43.834Z,572.57143
2022-08-18T04:02:45.553Z,525.13208
2022-08-18T04:07:47.336Z,519.70093
2022-08-18T04:12:48.937Z,514.37037
2022-08-18T04:17:56.193Z,498.95495
2022-08-18T04:23:08.557Z,498.95495
2022-08-18T04:28:10.322Z,494
2022-08-18T04:33:12.089Z,494
2022-08-18T04:38:14.101Z,509.13761
2022-08-18T04:43:15.999Z,504
2022-08-18T04:48:17.744Z,509.13761
2022-08-18T04:53:20.203Z,509.13761
2022-08-18T04:58:22.292Z,509.13761
2022-08-18T05:03:24.120Z,509.13761
2022-08-18T05:08:26.166Z,504
2022-08-18T05:13:27.951Z,498.95495
2022-08-18T05:18:30.047Z,432.88889
2022-08-18T05:23:33.497Z,440.77419
2022-08-18T05:28:35.284Z,436.8
2022-08-18T05:33:37.065Z,425.25
2022-08-18T05:38:39.074Z,429.03937
2022-08-18T05:43:51.548Z,436.8
2022-08-18T05:48:54.076Z,436.8
2022-08-18T05:53:56.286Z,466.0339
2022-08-18T05:58:57.909Z,504
2022-08-18T06:03:59.597Z,498.95495
2022-08-18T06:09:01.212Z,536.30769
2022-08-18T06:14:03.154Z,547.92157
2022-08-18T06:19:04.917Z,606.36559
2022-08-18T06:24:06.853Z,644
2022-08-18T06:29:08.588Z,628.44444
2022-08-18T06:34:10.470Z,572.57143
2022-08-18T06:39:12.514Z,585.66667
2022-08-18T06:44:14.158Z,572.57143
2022-08-18T06:49:15.814Z,652.04598
2022-08-18T06:54:17.791Z,723.74684
2022-08-18T06:59:19.586Z,799.55556
2022-08-18T07:04:21.361Z,836.75362
2022-08-18T07:09:23.172Z,849.88235
2022-08-18T07:14:24.629Z,733.74359
2022-08-18T07:19:26.410Z,704.49383
2022-08-18T07:24:28.763Z,787.83562
2022-08-18T07:29:30.649Z,836.75362
2022-08-18T07:34:32.415Z,906.5
2022-08-18T07:39:34.250Z,953.83607
2022-08-18T07:44:36.039Z,1044
2022-08-18T07:49:46.099Z,1006.06897
2022-08-18T07:55:01.819Z,863.40299
2022-08-18T08:00:03.541Z,906.5
2022-08-18T08:05:05.228Z,1006.06897
2022-08-18T08:10:08.893Z,1024.70175
2022-08-18T08:15:10.666Z,1064
2022-08-18T08:20:12.126Z,1006.06897
2022-08-18T08:25:42.909Z,1024.70175
2022-08-18T08:30:47.312Z,1006.06897
2022-08-18T08:35:50.379Z,988.0678
2022-08-18T08:40:52.364Z,1006.06897
2022-08-18T08:45:53.852Z,1006.06897
2022-08-18T08:50:55.386Z,1044
2022-08-18T08:56:02.203Z,1106.26415
2022-08-18T09:01:04.227Z,1106.26415
2022-08-18T09:06:05.821Z,1084.74074
2022-08-18T09:11:07.411Z,1064
2022-08-18T09:16:12.263Z,1024.70175
2022-08-18T09:21:15.595Z,1064
2022-08-18T09:26:17.452Z,1006.06897
2022-08-18T09:31:19.540Z,1176
2022-08-18T09:36:21.556Z,1084.74074
2022-08-18T09:41:27.854Z,1064
2022-08-18T09:46:33.202Z,1128.61538
2022-08-18T09:51:34.929Z,1006.06897
2022-08-18T09:56:37.384Z,1064
2022-08-18T10:01:56.054Z,1024.70175
2022-08-18T10:06:58.729Z,1151.84314
2022-08-18T10:12:01.622Z,1006.06897
2022-08-18T10:17:23.509Z,1044
2022-08-18T10:22:35.183Z,1106.26415
2022-08-18T10:27:37.680Z,1151.84314
2022-08-18T10:32:39.578Z,1106.26415
2022-08-18T10:37:41.188Z,1151.84314
2022-08-18T10:42:45.167Z,1106.26415
2022-08-18T10:47:49.022Z,1128.61538
2022-08-18T10:52:54.460Z,1176
2022-08-18T10:58:19.012Z,1201.14286
2022-08-18T11:03:50.257Z,1254.6383
2022-08-18T11:08:55.023Z,1227.33333
2022-08-18T11:13:59.325Z,1227.33333
2022-08-18T11:19:01.234Z,1254.6383
2022-08-18T11:24:03.161Z,1201.14286
2022-08-18T11:29:05.536Z,1151.84314
2022-08-18T11:34:07.484Z,1227.33333
2022-08-18T11:39:09.398Z,1446.43902
2022-08-18T11:44:11.413Z,1446.43902
2022-08-18T11:49:13.224Z,1523.48718
2022-08-18T11:54:17.610Z,1283.13043
2022-08-18T11:59:19.741Z,1484
2022-08-18T12:04:21.734Z,1446.43902
2022-08-18T12:09:45.251Z,1523.48718
2022-08-18T12:15:17.116Z,1565.05263
2022-08-18T12:20:19.722Z,1410.66667
2022-08-18T13:09:54.288Z,1312.88889
2022-08-18T13:14:56.035Z,1410.66667
2022-08-18T13:19:59.633Z,1410.66667
2022-08-18T13:25:03.988Z,1410.66667
2022-08-18T13:30:30.269Z,1344
2022-08-18T13:35:37.884Z,1201.14286
2022-08-18T13:40:47.135Z,1201.14286
2022-08-18T13:45:53.237Z,1376.55814
2022-08-18T13:50:57.704Z,1201.14286
2022-08-18T13:55:59.627Z,1176
2022-08-18T14:01:16.248Z,1201.14286
2022-08-18T14:06:39.719Z,1151.84314
2022-08-18T14:11:53.651Z,1254.6383
2022-08-18T14:16:55.529Z,1227.33333
2022-08-18T14:21:58.589Z,1106.26415
2022-08-18T14:27:00.049Z,1176
2022-08-18T14:32:02.546Z,1084.74074
2022-08-18T14:37:04.435Z,970.66667
2022-08-18T14:42:06.591Z,1106.26415
2022-08-18T14:47:10.027Z,1227.33333
2022-08-18T14:52:14.481Z,1128.61538
2022-08-18T14:57:16.630Z,1084.74074
2022-08-18T15:02:18.487Z,953.83607
2022-08-18T15:07:23.758Z,1106.26415
2022-08-18T15:12:26.132Z,1084.74074
2022-08-18T15:17:28.093Z,1024.70175
2022-08-18T15:22:31.381Z,937.54839
2022-08-18T15:27:42.532Z,1084.74074
2022-08-18T15:32:44.958Z,1006.06897
2022-08-18T15:37:46.673Z,1006.06897
2022-08-18T15:42:48.547Z,1006.06897
2022-08-18T15:47:50.614Z,1006.06897
2022-08-18T15:57:57.091Z,970.66667
2022-08-18T16:02:59.959Z,970.66667
2022-08-18T16:08:01.454Z,953.83607
2022-08-18T16:13:03.403Z,953.83607
2022-08-18T16:18:05.124Z,988.0678
2022-08-18T16:23:06.838Z,988.0678
2022-08-18T16:28:08.494Z,988.0678
2022-08-18T16:33:09.938Z,921.77778
2022-08-18T16:38:11.805Z,1006.06897
2022-08-18T16:43:13.541Z,970.66667
2022-08-18T16:48:16.909Z,1006.06897
2022-08-18T16:53:18.544Z,1024.70175
2022-08-18T16:58:20.459Z,1084.74074
2022-08-18T17:03:22.402Z,1024.70175
2022-08-18T17:08:24.160Z,1044
2022-08-18T17:13:26.052Z,1044
2022-08-18T17:18:27.934Z,1064
2022-08-18T17:23:29.663Z,1084.74074
2022-08-18T17:28:31.435Z,1084.74074
2022-08-18T17:33:37.130Z,1151.84314
2022-08-18T17:38:38.906Z,1106.26415
2022-08-18T17:48:42.884Z,1176
2022-08-18T17:53:45.951Z,1151.84314
2022-08-18T17:58:47.661Z,1151.84314
2022-08-18T18:03:49.137Z,1106.26415
2022-08-18T18:08:50.771Z,1128.61538
2022-08-18T18:13:52.584Z,1084.74074
2022-08-18T18:18:54.087Z,1064
2022-08-18T18:24:01.588Z,988.0678
2022-08-18T18:29:06.257Z,937.54839
2022-08-18T18:34:27.657Z,811.60563
2022-08-18T18:39:34.254Z,891.69231
2022-08-18T18:44:36.333Z,877.33333
2022-08-18T18:49:38.006Z,824
2022-08-18T18:54:39.566Z,799.55556
2022-08-18T18:59:41.111Z,723.74684
2022-08-18T19:04:42.624Z,714
2022-08-18T19:09:46.208Z,787.83562
2022-08-18T19:14:57.644Z,765.33333
2022-08-18T19:20:01.871Z,660.27907
2022-08-18T19:25:03.342Z,677.33333
2022-08-18T19:30:05.053Z,744
2022-08-18T19:35:12.177Z,765.33333
2022-08-18T19:40:14.056Z,799.55556
2022-08-18T19:45:17.272Z,799.55556
2022-08-18T19:50:19.037Z,811.60563
2022-08-18T19:55:20.529Z,824
2022-08-18T20:00:22.182Z,836.75362
2022-08-18T20:05:23.629Z,849.88235
2022-08-18T20:10:25.086Z,836.75362
2022-08-18T20:15:27.140Z,824
2022-08-18T20:20:29.183Z,849.88235
2022-08-18T20:25:30.997Z,824
2022-08-18T20:30:32.972Z,824
2022-08-18T20:35:34.871Z,824
2022-08-18T20:40:36.679Z,863.40299
2022-08-18T20:45:42.535Z,863.40299
2022-08-18T20:50:47.646Z,877.33333
2022-08-18T20:55:49.190Z,849.88235
2022-08-18T21:00:54.823Z,824
2022-08-18T21:05:56.449Z,787.83562
2022-08-18T21:10:57.872Z,765.33333
2022-08-18T21:15:59.539Z,754.52632
2022-08-18T21:21:01.115Z,776.43243
2022-08-18T21:26:02.602Z,787.83562
2022-08-18T21:31:42.838Z,765.33333
2022-08-18T21:36:46.019Z,824
2022-08-18T21:41:47.764Z,906.5
2022-08-18T21:46:49.796Z,877.33333
2022-08-18T21:51:51.256Z,877.33333
2022-08-18T21:56:52.725Z,863.40299
2022-08-18T22:01:54.426Z,811.60563
2022-08-18T22:06:56.176Z,744
2022-08-18T22:12:01.107Z,723.74684
2022-08-18T22:17:04.205Z,744
2022-08-18T22:22:05.605Z,799.55556
2022-08-18T22:27:07.392Z,787.83562
2022-08-18T22:32:09.296Z,744
2022-08-18T22:37:11.040Z,733.74359
2022-08-18T22:42:12.841Z,744
2022-08-18T22:47:14.958Z,787.83562
2022-08-18T22:52:16.755Z,811.60563
2022-08-18T22:57:18.603Z,824
2022-08-18T23:02:25.835Z,811.60563
2022-08-18T23:07:27.630Z,836.75362
2022-08-18T23:12:29.398Z,811.60563
2022-08-18T23:17:31.363Z,811.60563
2022-08-18T23:22:33.138Z,836.75362
2022-08-18T23:27:34.922Z,863.40299
2022-08-18T23:32:36.511Z,849.88235
2022-08-18T23:37:38.385Z,849.88235
2022-08-18T23:42:40.148Z,877.33333
2022-08-18T23:47:42.573Z,863.40299
2022-08-18T23:52:44.362Z,849.88235
2022-08-18T23:57:49.159Z,836.75362
